sensor_id;sensor_type;location;lat;lon;timestamp;P1;P4;P2;P0;N10;N4;N25;N1;N05;TS
44530;SPS30;30240;47.418;0.700;2023-10-31T00:02:08;3.2492797;;3.0827806;;;;;;;
44530;SPS30;30240;47.418;0.700;2023-10-31T00:04:33;3.2492797;;3.0827806;;;;;;;
44530;SPS30;30240;47.418;0.700;2023-10-31T00:06:58;3.2914896;;3.1330051;;;;;;;
44530;SPS30;30240;47.418;0.700;2023-10-31T00:09:23;2.7740808;;2.6283164;;;;;;;
44530;SPS30;30240;47.418;0.700;2023-10-31T00:11:48;2.8871267;;2.7014487;;;;;;;
44530;SPS30;30240;47.418;0.700;2023-10-31T00:14:13;3.445724;;3.1889286;;;;;;;
44530;SPS30;30240;47.418;0.700;2023-10-31T00:16:39;2.6686013;;2.4289918;;;;;;;
44530;SPS30;30240;47.418;0.700;2023-10-31T00:19:03;2.6686013;;2.4289918;;;;;;;
44530;SPS30;30240;47.418;0.700;2023-10-31T00:21:28;2.5961673;;2.4200408;;;;;;;
44530;SPS30;30240;47.418;0.700;2023-10-31T00:23:53;2.9218352;;2.7211947;;;;;;;
44530;SPS30;30240;47.418;0.700;2023-10-31T00:26:18;2.9568255;;2.7598982;;;;;;;
44530;SPS30;30240;47.418;0.700;2023-10-31T00:28:43;3.0984287;;2.8844075;;;;;;;
44530;SPS30;30240;47.418;0.700;2023-10-31T00:31:09;3.0984287;;2.8844075;;;;;;;
44530;SPS30;30240;47.418;0.700;2023-10-31T00:33:34;2.9013984;;2.753967;;;;;;;
44530;SPS30;30240;47.418;0.700;2023-10-31T00:35:58;2.751296;;2.6082652;;;;;;;
44530;SPS30;30240;47.418;0.700;2023-10-31T00:38:23;3.2960167;;3.1089175;;;;;;;
44530;SPS30;30240;47.418;0.700;2023-10-31T00:40:49;2.315839;;2.1920917;;;;;;;
44530;SPS30;30240;47.418;0.700;2023-10-31T00:43:14;2.315839;;2.1920917;;;;;;;
44530;SPS30;30240;47.418;0.700;2023-10-31T00:45:38;3.1390977;;2.9278572;;;;;;;
44530;SPS30;30240;47.418;0.700;2023-10-31T00:48:04;2.5866618;;2.4014583;;;;;;;
44530;SPS30;30240;47.418;0.700;2023-10-31T00:50:28;2.9004288;;2.669962;;;;;;;
44530;SPS30;30240;47.418;0.700;2023-10-31T00:52:53;2.7915523;;2.5939865;;;;;;;
44530;SPS30;30240;47.418;0.700;2023-10-31T00:55:18;2.7915523;;2.5939865;;;;;;;
44530;SPS30;30240;47.418;0.700;2023-10-31T00:57:43;3.055211;;2.8819659;;;;;;;
44530;SPS30;30240;47.418;0.700;2023-10-31T01:00:09;2.4924417;;2.3204267;;;;;;;
44530;SPS30;30240;47.418;0.700;2023-10-31T01:02:34;3.141894;;2.826832;;;;;;;
44530;SPS30;30240;47.418;0.700;2023-10-31T01:04:58;2.8900177;;2.6009746;;;;;;;
44530;SPS30;30240;47.418;0.700;2023-10-31T01:07:23;2.8900177;;2.6009746;;;;;;;
44530;SPS30;30240;47.418;0.700;2023-10-31T01:09:48;3.2359219;;2.848645;;;;;;;
44530;SPS30;30240;47.418;0.700;2023-10-31T01:12:13;3.3459842;;2.9565852;;;;;;;
44530;SPS30;30240;47.418;0.700;2023-10-31T01:14:38;2.6918986;;2.45829;;;;;;;
44530;SPS30;30240;47.418;0.700;2023-10-31T01:17:04;2.3429532;;2.163424;;;;;;;
44530;SPS30;30240;47.418;0.700;2023-10-31T01:19:29;2.3429532;;2.163424;;;;;;;
44530;SPS30;30240;47.418;0.700;2023-10-31T01:21:53;2.579644;;2.3623369;;;;;;;
44530;SPS30;30240;47.418;0.700;2023-10-31T01:24:19;2.640159;;2.3808556;;;;;;;
44530;SPS30;30240;47.418;0.700;2023-10-31T01:26:45;2.8846343;;2.5581543;;;;;;;
44530;SPS30;30240;47.418;0.700;2023-10-31T01:29:08;2.6033502;;2.2434423;;;;;;;
44530;SPS30;30240;47.418;0.700;2023-10-31T01:31:33;2.6033502;;2.2434423;;;;;;;
44530;SPS30;30240;47.418;0.700;2023-10-31T01:33:59;3.1809514;;2.7268755;;;;;;;
44530;SPS30;30240;47.418;0.700;2023-10-31T01:36:24;2.9759514;;2.538714;;;;;;;
44530;SPS30;30240;47.418;0.700;2023-10-31T01:38:48;2.336081;;2.0467215;;;;;;;
44530;SPS30;30240;47.418;0.700;2023-10-31T01:41:13;2.4946802;;2.1556406;;;;;;;
44530;SPS30;30240;47.418;0.700;2023-10-31T01:43:39;2.4946802;;2.1556406;;;;;;;
44530;SPS30;30240;47.418;0.700;2023-10-31T01:46:04;2.8967326;;2.5582705;;;;;;;
44530;SPS30;30240;47.418;0.700;2023-10-31T01:48:29;2.0348089;;1.7916802;;;;;;;
44530;SPS30;30240;47.418;0.700;2023-10-31T01:50:54;3.1680322;;2.818854;;;;;;;
44530;SPS30;30240;47.418;0.700;2023-10-31T01:53:19;2.9506454;;2.6258862;;;;;;;
44530;SPS30;30240;47.418;0.700;2023-10-31T01:55:44;3.367533;;2.98044;;;;;;;
44530;SPS30;30240;47.418;0.700;2023-10-31T01:58:09;3.367533;;2.98044;;;;;;;
44530;SPS30;30240;47.418;0.700;2023-10-31T02:00:33;2.7541876;;2.437219;;;;;;;
44530;SPS30;30240;47.418;0.700;2023-10-31T02:02:58;2.4326935;;2.0917041;;;;;;;
44530;SPS30;30240;47.418;0.700;2023-10-31T02:05:23;2.6554184;;2.3185167;;;;;;;
44530;SPS30;30240;47.418;0.700;2023-10-31T02:07:48;2.374729;;2.0853095;;;;;;;
44530;SPS30;30240;47.418;0.700;2023-10-31T02:10:13;2.374729;;2.0853095;;;;;;;
44530;SPS30;30240;47.418;0.700;2023-10-31T02:12:38;2.4846206;;2.1217;;;;;;;
44530;SPS30;30240;47.418;0.700;2023-10-31T02:15:04;2.3222835;;1.9824885;;;;;;;
44530;SPS30;30240;47.418;0.700;2023-10-31T02:17:29;2.2823832;;1.9747653;;;;;;;
44530;SPS30;30240;47.418;0.700;2023-10-31T02:19:54;2.9183583;;2.5083728;;;;;;;
44530;SPS30;30240;47.418;0.700;2023-10-31T02:22:18;2.9183583;;2.5083728;;;;;;;
44530;SPS30;30240;47.418;0.700;2023-10-31T02:24:43;2.7299538;;2.3275623;;;;;;;
44530;SPS30;30240;47.418;0.700;2023-10-31T02:27:08;2.5915718;;2.1404014;;;;;;;
44530;SPS30;30240;47.418;0.700;2023-10-31T02:29:34;2.1889212;;1.8663791;;;;;;;
44530;SPS30;30240;47.418;0.700;2023-10-31T02:31:58;2.4559495;;2.1140199;;;;;;;
44530;SPS30;30240;47.418;0.700;2023-10-31T02:34:23;2.4559495;;2.1140199;;;;;;;
44530;SPS30;30240;47.418;0.700;2023-10-31T02:36:48;2.8387213;;2.4444664;;;;;;;
44530;SPS30;30240;47.418;0.700;2023-10-31T02:39:13;1.8574286;;1.614432;;;;;;;
44530;SPS30;30240;47.418;0.700;2023-10-31T02:41:38;2.3452861;;2.0334857;;;;;;;
44530;SPS30;30240;47.418;0.700;2023-10-31T02:44:04;1.8797485;;1.6113819;;;;;;;
44530;SPS30;30240;47.418;0.700;2023-10-31T02:46:28;1.8797485;;1.6113819;;;;;;;
44530;SPS30;30240;47.418;0.700;2023-10-31T02:48:53;2.3472478;;2.0131493;;;;;;;
44530;SPS30;30240;47.418;0.700;2023-10-31T02:51:18;2.316791;;1.9779756;;;;;;;
44530;SPS30;30240;47.418;0.700;2023-10-31T02:53:43;2.3525264;;2.043762;;;;;;;
44530;SPS30;30240;47.418;0.700;2023-10-31T02:56:08;2.1710043;;1.8848604;;;;;;;
44530;SPS30;30240;47.418;0.700;2023-10-31T02:58:33;2.1710043;;1.8848604;;;;;;;
44530;SPS30;30240;47.418;0.700;2023-10-31T03:00:58;1.8225363;;1.608218;;;;;;;
44530;SPS30;30240;47.418;0.700;2023-10-31T03:03:23;2.250802;;1.9379659;;;;;;;
44530;SPS30;30240;47.418;0.700;2023-10-31T03:05:48;2.6880326;;2.2885568;;;;;;;
44530;SPS30;30240;47.418;0.700;2023-10-31T03:08:13;3.0202599;;2.511563;;;;;;;
44530;SPS30;30240;47.418;0.700;2023-10-31T03:10:39;3.0202599;;2.511563;;;;;;;
44530;SPS30;30240;47.418;0.700;2023-10-31T03:13:04;2.6646085;;2.216331;;;;;;;
44530;SPS30;30240;47.418;0.700;2023-10-31T03:15:29;2.2356117;;1.8308693;;;;;;;
44530;SPS30;30240;47.418;0.700;2023-10-31T03:17:53;1.7323165;;1.4187976;;;;;;;
44530;SPS30;30240;47.418;0.700;2023-10-31T03:20:18;2.6358325;;2.1277933;;;;;;;
44530;SPS30;30240;47.418;0.700;2023-10-31T03:22:43;1.9964225;;1.6526545;;;;;;;
44530;SPS30;30240;47.418;0.700;2023-10-31T03:25:08;1.9964225;;1.6526545;;;;;;;
44530;SPS30;30240;47.418;0.700;2023-10-31T03:27:34;2.3875024;;1.9570253;;;;;;;
44530;SPS30;30240;47.418;0.700;2023-10-31T03:29:58;2.648912;;2.2162795;;;;;;;
44530;SPS30;30240;47.418;0.700;2023-10-31T03:32:23;1.8787026;;1.5908666;;;;;;;
44530;SPS30;30240;47.418;0.700;2023-10-31T03:34:48;1.7921848;;1.5342205;;;;;;;
44530;SPS30;30240;47.418;0.700;2023-10-31T03:37:13;1.7921848;;1.5342205;;;;;;;
44530;SPS30;30240;47.418;0.700;2023-10-31T03:39:38;1.6786008;;1.4267429;;;;;;;
44530;SPS30;30240;47.418;0.700;2023-10-31T03:42:04;2.112161;;1.765538;;;;;;;
44530;SPS30;30240;47.418;0.700;2023-10-31T03:44:29;1.8279039;;1.5105907;;;;;;;
44530;SPS30;30240;47.418;0.700;2023-10-31T03:46:54;2.2145796;;1.797189;;;;;;;
44530;SPS30;30240;47.418;0.700;2023-10-31T03:49:18;2.2145796;;1.797189;;;;;;;
44530;SPS30;30240;47.418;0.700;2023-10-31T03:51:44;1.9501815;;1.5914255;;;;;;;
44530;SPS30;30240;47.418;0.700;2023-10-31T03:54:09;1.5431699;;1.27598;;;;;;;
44530;SPS30;30240;47.418;0.700;2023-10-31T03:56:38;2.5435202;;2.1070235;;;;;;;
44530;SPS30;30240;47.418;0.700;2023-10-31T03:58:59;1.6157436;;1.3495473;;;;;;;
44530;SPS30;30240;47.418;0.700;2023-10-31T04:01:23;1.6157436;;1.3495473;;;;;;;
44530;SPS30;30240;47.418;0.700;2023-10-31T04:03:49;1.7185074;;1.4350678;;;;;;;
44530;SPS30;30240;47.418;0.700;2023-10-31T04:06:14;1.4472046;;1.2345505;;;;;;;
44530;SPS30;30240;47.418;0.700;2023-10-31T04:08:39;2.0339675;;1.7224175;;;;;;;
44530;SPS30;30240;47.418;0.700;2023-10-31T04:11:04;1.7035824;;1.4557474;;;;;;;
44530;SPS30;30240;47.418;0.700;2023-10-31T04:13:28;1.7035824;;1.4557474;;;;;;;
44530;SPS30;30240;47.418;0.700;2023-10-31T04:15:54;1.7889649;;1.5190611;;;;;;;
44530;SPS30;30240;47.418;0.700;2023-10-31T04:18:19;1.8201388;;1.5460582;;;;;;;
44530;SPS30;30240;47.418;0.700;2023-10-31T04:20:43;1.9404651;;1.649585;;;;;;;
44530;SPS30;30240;47.418;0.700;2023-10-31T04:23:08;1.8253379;;1.5802258;;;;;;;
44530;SPS30;30240;47.418;0.700;2023-10-31T04:25:33;1.8253379;;1.5802258;;;;;;;
44530;SPS30;30240;47.418;0.700;2023-10-31T04:27:58;1.8596398;;1.6207254;;;;;;;
44530;SPS30;30240;47.418;0.700;2023-10-31T04:30:23;2.3916316;;2.1526234;;;;;;;
44530;SPS30;30240;47.418;0.700;2023-10-31T04:32:48;2.1169107;;1.9208636;;;;;;;
44530;SPS30;30240;47.418;0.700;2023-10-31T04:35:13;1.8407968;;1.6903505;;;;;;;
44530;SPS30;30240;47.418;0.700;2023-10-31T04:37:38;1.8407968;;1.6903505;;;;;;;
44530;SPS30;30240;47.418;0.700;2023-10-31T04:40:04;2.1268823;;1.9660857;;;;;;;
44530;SPS30;30240;47.418;0.700;2023-10-31T04:42:29;1.7040789;;1.5731337;;;;;;;
44530;SPS30;30240;47.418;0.700;2023-10-31T04:44:53;1.6510882;;1.5341916;;;;;;;
44530;SPS30;30240;47.418;0.700;2023-10-31T04:47:18;1.5953668;;1.4942411;;;;;;;
44530;SPS30;30240;47.418;0.700;2023-10-31T04:49:43;1.5953668;;1.4942411;;;;;;;
44530;SPS30;30240;47.418;0.700;2023-10-31T04:52:08;2.3803604;;2.1851385;;;;;;;
44530;SPS30;30240;47.418;0.700;2023-10-31T04:54:33;1.6611056;;1.5433707;;;;;;;
44530;SPS30;30240;47.418;0.700;2023-10-31T04:56:58;1.9840795;;1.8523134;;;;;;;
44530;SPS30;30240;47.418;0.700;2023-10-31T04:59:23;2.0830102;;1.9484028;;;;;;;
44530;SPS30;30240;47.418;0.700;2023-10-31T05:01:49;1.6717956;;1.5849379;;;;;;;
44530;SPS30;30240;47.418;0.700;2023-10-31T05:04:13;1.6717956;;1.5849379;;;;;;;
44530;SPS30;30240;47.418;0.700;2023-10-31T05:06:38;2.3067296;;2.2016954;;;;;;;
44530;SPS30;30240;47.418;0.700;2023-10-31T05:09:03;2.0728998;;1.9388208;;;;;;;
44530;SPS30;30240;47.418;0.700;2023-10-31T05:11:28;1.7714406;;1.6617762;;;;;;;
44530;SPS30;30240;47.418;0.700;2023-10-31T05:13:53;1.9290032;;1.8201443;;;;;;;
44530;SPS30;30240;47.418;0.700;2023-10-31T05:16:18;1.9290032;;1.8201443;;;;;;;
44530;SPS30;30240;47.418;0.700;2023-10-31T05:18:43;2.4880307;;2.3525398;;;;;;;
44530;SPS30;30240;47.418;0.700;2023-10-31T05:21:08;2.2720397;;2.1536326;;;;;;;
44530;SPS30;30240;47.418;0.700;2023-10-31T05:23:33;1.8704729;;1.7699444;;;;;;;
44530;SPS30;30240;47.418;0.700;2023-10-31T05:25:58;1.6914916;;1.6191375;;;;;;;
44530;SPS30;30240;47.418;0.700;2023-10-31T05:28:23;1.6914916;;1.6191375;;;;;;;
44530;SPS30;30240;47.418;0.700;2023-10-31T05:30:48;1.8483423;;1.7572913;;;;;;;
44530;SPS30;30240;47.418;0.700;2023-10-31T05:33:14;1.8336581;;1.7176718;;;;;;;
44530;SPS30;30240;47.418;0.700;2023-10-31T05:35:39;2.0795012;;1.9446925;;;;;;;
44530;SPS30;30240;47.418;0.700;2023-10-31T05:38:04;2.2910364;;2.1164615;;;;;;;
44530;SPS30;30240;47.418;0.700;2023-10-31T05:40:28;2.2910364;;2.1164615;;;;;;;
44530;SPS30;30240;47.418;0.700;2023-10-31T05:42:53;2.3847494;;2.236878;;;;;;;
44530;SPS30;30240;47.418;0.700;2023-10-31T05:45:18;2.497101;;2.3442843;;;;;;;
44530;SPS30;30240;47.418;0.700;2023-10-31T05:47:43;3.631304;;3.4162416;;;;;;;
44530;SPS30;30240;47.418;0.700;2023-10-31T05:50:08;3.0570352;;2.903353;;;;;;;
44530;SPS30;30240;47.418;0.700;2023-10-31T05:52:33;3.0570352;;2.903353;;;;;;;
44530;SPS30;30240;47.418;0.700;2023-10-31T05:54:58;2.0206797;;1.9252274;;;;;;;
44530;SPS30;30240;47.418;0.700;2023-10-31T05:57:23;1.5305209;;1.4592814;;;;;;;
44530;SPS30;30240;47.418;0.700;2023-10-31T05:59:48;1.6085545;;1.5153064;;;;;;;
44530;SPS30;30240;47.418;0.700;2023-10-31T06:02:14;1.5198787;;1.4258118;;;;;;;
44530;SPS30;30240;47.418;0.700;2023-10-31T06:04:38;1.5198787;;1.4258118;;;;;;;
44530;SPS30;30240;47.418;0.700;2023-10-31T06:07:03;1.3888481;;1.3040776;;;;;;;
44530;SPS30;30240;47.418;0.700;2023-10-31T06:09:28;1.5021718;;1.4105188;;;;;;;
44530;SPS30;30240;47.418;0.700;2023-10-31T06:11:53;1.5734483;;1.4598929;;;;;;;
44530;SPS30;30240;47.418;0.700;2023-10-31T06:14:18;1.2283957;;1.1401386;;;;;;;
44530;SPS30;30240;47.418;0.700;2023-10-31T06:16:43;1.2283957;;1.1401386;;;;;;;
44530;SPS30;30240;47.418;0.700;2023-10-31T06:19:08;1.7344441;;1.6141169;;;;;;;
44530;SPS30;30240;47.418;0.700;2023-10-31T06:21:33;1.6349514;;1.5370476;;;;;;;
44530;SPS30;30240;47.418;0.700;2023-10-31T06:23:58;1.6147125;;1.5003023;;;;;;;
44530;SPS30;30240;47.418;0.700;2023-10-31T06:26:23;1.3275139;;1.2323638;;;;;;;
44530;SPS30;30240;47.418;0.700;2023-10-31T06:28:48;1.6800853;;1.588377;;;;;;;
44530;SPS30;30240;47.418;0.700;2023-10-31T06:31:13;1.6800853;;1.588377;;;;;;;
44530;SPS30;30240;47.418;0.700;2023-10-31T06:33:38;1.7211906;;1.6181904;;;;;;;
44530;SPS30;30240;47.418;0.700;2023-10-31T06:36:04;1.5377542;;1.472562;;;;;;;
44530;SPS30;30240;47.418;0.700;2023-10-31T06:38:28;1.9438388;;1.8599145;;;;;;;
44530;SPS30;30240;47.418;0.700;2023-10-31T06:40:53;1.9236315;;1.8047357;;;;;;;
44530;SPS30;30240;47.418;0.700;2023-10-31T06:43:18;1.9236315;;1.8047357;;;;;;;
44530;SPS30;30240;47.418;0.700;2023-10-31T06:45:43;2.1257308;;2.0390668;;;;;;;
44530;SPS30;30240;47.418;0.700;2023-10-31T06:48:08;1.8646369;;1.7921609;;;;;;;
44530;SPS30;30240;47.418;0.700;2023-10-31T06:50:33;1.8145044;;1.748886;;;;;;;
44530;SPS30;30240;47.418;0.700;2023-10-31T06:52:58;2.0901692;;1.994018;;;;;;;
44530;SPS30;30240;47.418;0.700;2023-10-31T06:55:24;2.0901692;;1.994018;;;;;;;
44530;SPS30;30240;47.418;0.700;2023-10-31T06:57:48;2.249704;;2.1918864;;;;;;;
44530;SPS30;30240;47.418;0.700;2023-10-31T07:00:14;1.8286232;;1.7845569;;;;;;;
44530;SPS30;30240;47.418;0.700;2023-10-31T07:02:38;1.7861811;;1.7646573;;;;;;;
44530;SPS30;30240;47.418;0.700;2023-10-31T07:05:04;3.5533059;;3.5328164;;;;;;;
44530;SPS30;30240;47.418;0.700;2023-10-31T07:07:28;3.5533059;;3.5328164;;;;;;;
44530;SPS30;30240;47.418;0.700;2023-10-31T07:09:53;1.9040327;;1.8926699;;;;;;;
44530;SPS30;30240;47.418;0.700;2023-10-31T07:12:18;2.5380294;;2.5302615;;;;;;;
44530;SPS30;30240;47.418;0.700;2023-10-31T07:14:43;2.0124109;;2.004909;;;;;;;
44530;SPS30;30240;47.418;0.700;2023-10-31T07:17:08;2.6151042;;2.5927138;;;;;;;
44530;SPS30;30240;47.418;0.700;2023-10-31T07:19:36;2.6151042;;2.5927138;;;;;;;
44530;SPS30;30240;47.418;0.700;2023-10-31T07:21:58;2.2171073;;2.211857;;;;;;;
44530;SPS30;30240;47.418;0.700;2023-10-31T07:24:24;2.848927;;2.8354816;;;;;;;
44530;SPS30;30240;47.418;0.700;2023-10-31T07:26:48;4.493464;;4.492379;;;;;;;
44530;SPS30;30240;47.418;0.700;2023-10-31T07:29:13;4.782175;;4.723297;;;;;;;
44530;SPS30;30240;47.418;0.700;2023-10-31T07:31:38;4.782175;;4.723297;;;;;;;
44530;SPS30;30240;47.418;0.700;2023-10-31T07:34:04;3.2689674;;3.2320879;;;;;;;
44530;SPS30;30240;47.418;0.700;2023-10-31T07:36:28;2.191574;;2.1852486;;;;;;;
44530;SPS30;30240;47.418;0.700;2023-10-31T07:38:53;7.296661;;7.2328205;;;;;;;
44530;SPS30;30240;47.418;0.700;2023-10-31T07:41:18;5.064961;;4.913635;;;;;;;
44530;SPS30;30240;47.418;0.700;2023-10-31T07:43:43;5.064961;;4.913635;;;;;;;
44530;SPS30;30240;47.418;0.700;2023-10-31T07:46:08;5.9701037;;5.5954657;;;;;;;
44530;SPS30;30240;47.418;0.700;2023-10-31T07:48:33;3.5105503;;3.3365486;;;;;;;
44530;SPS30;30240;47.418;0.700;2023-10-31T07:50:58;2.6925683;;2.564399;;;;;;;
44530;SPS30;30240;47.418;0.700;2023-10-31T07:53:23;4.4174924;;4.2083883;;;;;;;
44530;SPS30;30240;47.418;0.700;2023-10-31T07:55:48;3.9998085;;3.7906497;;;;;;;
44530;SPS30;30240;47.418;0.700;2023-10-31T07:58:13;3.9998085;;3.7906497;;;;;;;
44530;SPS30;30240;47.418;0.700;2023-10-31T08:00:38;3.2598443;;3.0310829;;;;;;;
44530;SPS30;30240;47.418;0.700;2023-10-31T08:03:03;2.717538;;2.567939;;;;;;;
44530;SPS30;30240;47.418;0.700;2023-10-31T08:05:28;2.5913568;;2.4990273;;;;;;;
44530;SPS30;30240;47.418;0.700;2023-10-31T08:07:53;1.9962381;;1.9420997;;;;;;;
44530;SPS30;30240;47.418;0.700;2023-10-31T08:10:18;1.9962381;;1.9420997;;;;;;;
44530;SPS30;30240;47.418;0.700;2023-10-31T08:12:44;2.7192707;;2.6552734;;;;;;;
44530;SPS30;30240;47.418;0.700;2023-10-31T08:15:09;2.4390988;;2.3714762;;;;;;;
44530;SPS30;30240;47.418;0.700;2023-10-31T08:17:33;1.7847769;;1.7395737;;;;;;;
44530;SPS30;30240;47.418;0.700;2023-10-31T08:19:58;2.5644178;;2.4719017;;;;;;;
44530;SPS30;30240;47.418;0.700;2023-10-31T08:22:23;2.5644178;;2.4719017;;;;;;;
44530;SPS30;30240;47.418;0.700;2023-10-31T08:24:48;2.076012;;2.009726;;;;;;;
44530;SPS30;30240;47.418;0.700;2023-10-31T08:27:13;2.9066412;;2.8278842;;;;;;;
44530;SPS30;30240;47.418;0.700;2023-10-31T08:29:38;1.7635962;;1.7066238;;;;;;;
44530;SPS30;30240;47.418;0.700;2023-10-31T08:32:05;1.6237394;;1.551229;;;;;;;
44530;SPS30;30240;47.418;0.700;2023-10-31T08:34:28;1.6237394;;1.551229;;;;;;;
44530;SPS30;30240;47.418;0.700;2023-10-31T08:36:53;1.8184386;;1.7281137;;;;;;;
44530;SPS30;30240;47.418;0.700;2023-10-31T08:39:19;1.7737134;;1.6657931;;;;;;;
44530;SPS30;30240;47.418;0.700;2023-10-31T08:41:52;1.3920641;;1.2954808;;;;;;;
44530;SPS30;30240;47.418;0.700;2023-10-31T08:44:09;1.7654343;;1.636746;;;;;;;
44530;SPS30;30240;47.418;0.700;2023-10-31T08:46:34;1.7654343;;1.636746;;;;;;;
44530;SPS30;30240;47.418;0.700;2023-10-31T08:48:59;1.7714528;;1.6466358;;;;;;;
44530;SPS30;30240;47.418;0.700;2023-10-31T08:51:24;2.4468048;;2.2523966;;;;;;;
44530;SPS30;30240;47.418;0.700;2023-10-31T08:53:49;4.220849;;3.9391997;;;;;;;
44530;SPS30;30240;47.418;0.700;2023-10-31T08:56:14;2.6791124;;2.4638965;;;;;;;
44530;SPS30;30240;47.418;0.700;2023-10-31T08:58:39;2.6791124;;2.4638965;;;;;;;
44530;SPS30;30240;47.418;0.700;2023-10-31T09:01:04;2.3556495;;2.183494;;;;;;;
44530;SPS30;30240;47.418;0.700;2023-10-31T09:03:29;2.764664;;2.5424037;;;;;;;
44530;SPS30;30240;47.418;0.700;2023-10-31T09:05:54;1.905354;;1.7387829;;;;;;;
44530;SPS30;30240;47.418;0.700;2023-10-31T09:08:19;2.08369;;1.9153919;;;;;;;
44530;SPS30;30240;47.418;0.700;2023-10-31T09:10:43;2.08369;;1.9153919;;;;;;;
44530;SPS30;30240;47.418;0.700;2023-10-31T09:13:08;1.9973903;;1.8121415;;;;;;;
44530;SPS30;30240;47.418;0.700;2023-10-31T09:15:33;1.9663879;;1.7696098;;;;;;;
44530;SPS30;30240;47.418;0.700;2023-10-31T09:17:58;2.009319;;1.7623099;;;;;;;
44530;SPS30;30240;47.418;0.700;2023-10-31T09:20:23;1.8083937;;1.5679129;;;;;;;
44530;SPS30;30240;47.418;0.700;2023-10-31T09:22:48;1.8083937;;1.5679129;;;;;;;
44530;SPS30;30240;47.418;0.700;2023-10-31T09:25:13;2.2028673;;1.876924;;;;;;;
44530;SPS30;30240;47.418;0.700;2023-10-31T09:27:40;2.5143976;;2.1250324;;;;;;;
44530;SPS30;30240;47.418;0.700;2023-10-31T09:30:04;2.1053104;;1.802583;;;;;;;
44530;SPS30;30240;47.418;0.700;2023-10-31T09:32:28;1.8753207;;1.5957843;;;;;;;
44530;SPS30;30240;47.418;0.700;2023-10-31T09:34:53;2.1232886;;1.7953477;;;;;;;
44530;SPS30;30240;47.418;0.700;2023-10-31T09:37:19;2.1232886;;1.7953477;;;;;;;
44530;SPS30;30240;47.418;0.700;2023-10-31T09:39:44;2.0431993;;1.6995885;;;;;;;
44530;SPS30;30240;47.418;0.700;2023-10-31T09:42:09;1.8417135;;1.5135511;;;;;;;
44530;SPS30;30240;47.418;0.700;2023-10-31T09:44:34;2.254332;;1.8370224;;;;;;;
44530;SPS30;30240;47.418;0.700;2023-10-31T09:46:59;2.4081357;;1.9749255;;;;;;;
44530;SPS30;30240;47.418;0.700;2023-10-31T09:49:23;2.4081357;;1.9749255;;;;;;;
44530;SPS30;30240;47.418;0.700;2023-10-31T09:51:48;3.1423123;;2.5567818;;;;;;;
44530;SPS30;30240;47.418;0.700;2023-10-31T09:54:14;2.620541;;2.0930643;;;;;;;
44530;SPS30;30240;47.418;0.700;2023-10-31T09:56:38;2.4734147;;2.0042303;;;;;;;
44530;SPS30;30240;47.418;0.700;2023-10-31T09:59:04;2.133526;;1.6876907;;;;;;;
44530;SPS30;30240;47.418;0.700;2023-10-31T10:01:28;2.133526;;1.6876907;;;;;;;
44530;SPS30;30240;47.418;0.700;2023-10-31T10:03:53;3.447673;;2.6140828;;;;;;;
44530;SPS30;30240;47.418;0.700;2023-10-31T10:06:19;3.4715216;;2.6144629;;;;;;;
44530;SPS30;30240;47.418;0.700;2023-10-31T10:08:43;2.5242698;;1.9262036;;;;;;;
44530;SPS30;30240;47.418;0.700;2023-10-31T10:11:09;3.4878285;;2.581772;;;;;;;
44530;SPS30;30240;47.418;0.700;2023-10-31T10:13:33;3.4878285;;2.581772;;;;;;;
44530;SPS30;30240;47.418;0.700;2023-10-31T10:15:59;4.671918;;3.521919;;;;;;;
44530;SPS30;30240;47.418;0.700;2023-10-31T10:18:24;5.080729;;3.9497914;;;;;;;
44530;SPS30;30240;47.418;0.700;2023-10-31T10:20:54;5.2935333;;4.3197536;;;;;;;
44530;SPS30;30240;47.418;0.700;2023-10-31T10:23:13;3.1788893;;2.6877918;;;;;;;
44530;SPS30;30240;47.418;0.700;2023-10-31T10:25:39;3.1788893;;2.6877918;;;;;;;
44530;SPS30;30240;47.418;0.700;2023-10-31T10:28:03;4.46445;;3.8289309;;;;;;;
44530;SPS30;30240;47.418;0.700;2023-10-31T10:30:28;5.0045485;;4.4298096;;;;;;;
44530;SPS30;30240;47.418;0.700;2023-10-31T10:32:53;3.0185077;;2.6859474;;;;;;;
44530;SPS30;30240;47.418;0.700;2023-10-31T10:35:18;3.0080895;;2.6565158;;;;;;;
44530;SPS30;30240;47.418;0.700;2023-10-31T10:37:43;3.0080895;;2.6565158;;;;;;;
44530;SPS30;30240;47.418;0.700;2023-10-31T10:40:09;4.258335;;3.829791;;;;;;;
44530;SPS30;30240;47.418;0.700;2023-10-31T10:42:36;2.7003312;;2.435937;;;;;;;
44530;SPS30;30240;47.418;0.700;2023-10-31T10:45:01;3.7955973;;3.2385008;;;;;;;
44530;SPS30;30240;47.418;0.700;2023-10-31T10:47:23;4.1039686;;3.4545624;;;;;;;
44530;SPS30;30240;47.418;0.700;2023-10-31T10:49:48;4.1039686;;3.4545624;;;;;;;
44530;SPS30;30240;47.418;0.700;2023-10-31T10:52:16;3.0473914;;2.648264;;;;;;;
44530;SPS30;30240;47.418;0.700;2023-10-31T10:54:40;2.047795;;1.7933263;;;;;;;
44530;SPS30;30240;47.418;0.700;2023-10-31T10:57:06;5.5062904;;4.6783924;;;;;;;
44530;SPS30;30240;47.418;0.700;2023-10-31T10:57:09;5.5062904;;4.6783924;;;;;;;
44530;SPS30;30240;47.418;0.700;2023-10-31T10:59:30;3.0335062;;2.5653903;;;;;;;
44530;SPS30;30240;47.418;0.700;2023-10-31T11:01:53;4.2481956;;3.5531719;;;;;;;
44530;SPS30;30240;47.418;0.700;2023-10-31T11:04:18;4.2481956;;3.5531719;;;;;;;
44530;SPS30;30240;47.418;0.700;2023-10-31T11:06:44;2.0686197;;1.7341356;;;;;;;
44530;SPS30;30240;47.418;0.700;2023-10-31T11:09:09;3.8174164;;3.1325946;;;;;;;
44530;SPS30;30240;47.418;0.700;2023-10-31T11:11:34;2.518526;;2.1294088;;;;;;;
44530;SPS30;30240;47.418;0.700;2023-10-31T11:14:00;3.5976908;;3.0814488;;;;;;;
44530;SPS30;30240;47.418;0.700;2023-10-31T11:16:24;3.5976908;;3.0814488;;;;;;;
44530;SPS30;30240;47.418;0.700;2023-10-31T11:18:48;2.470802;;2.1625028;;;;;;;
44530;SPS30;30240;47.418;0.700;2023-10-31T11:21:13;3.3925922;;2.9554574;;;;;;;
44530;SPS30;30240;47.418;0.700;2023-10-31T11:23:38;2.8594441;;2.4174852;;;;;;;
44530;SPS30;30240;47.418;0.700;2023-10-31T11:26:04;2.3792105;;2.0041826;;;;;;;
44530;SPS30;30240;47.418;0.700;2023-10-31T11:28:28;2.3792105;;2.0041826;;;;;;;
44530;SPS30;30240;47.418;0.700;2023-10-31T11:30:53;1.8890325;;1.5966849;;;;;;;
44530;SPS30;30240;47.418;0.700;2023-10-31T11:33:19;2.2619176;;1.811812;;;;;;;
44530;SPS30;30240;47.418;0.700;2023-10-31T11:35:43;2.9739456;;2.3055592;;;;;;;
44530;SPS30;30240;47.418;0.700;2023-10-31T11:38:09;2.991685;;2.2726564;;;;;;;
44530;SPS30;30240;47.418;0.700;2023-10-31T11:40:34;2.991685;;2.2726564;;;;;;;
44530;SPS30;30240;47.418;0.700;2023-10-31T11:43:04;2.9126282;;2.20531;;;;;;;
44530;SPS30;30240;47.418;0.700;2023-10-31T11:43:04;2.9126282;;2.20531;;;;;;;
44530;SPS30;30240;47.418;0.700;2023-10-31T11:45:25;2.6734905;;1.9970833;;;;;;;
44530;SPS30;30240;47.418;0.700;2023-10-31T11:47:49;2.7476685;;2.0404654;;;;;;;
44530;SPS30;30240;47.418;0.700;2023-10-31T11:50:14;3.7702093;;2.748191;;;;;;;
44530;SPS30;30240;47.418;0.700;2023-10-31T11:52:39;3.7702093;;2.748191;;;;;;;
44530;SPS30;30240;47.418;0.700;2023-10-31T11:55:04;2.4984899;;1.8496672;;;;;;;
44530;SPS30;30240;47.418;0.700;2023-10-31T11:57:28;2.690696;;1.9799016;;;;;;;
44530;SPS30;30240;47.418;0.700;2023-10-31T11:59:53;3.371661;;2.484958;;;;;;;
44530;SPS30;30240;47.418;0.700;2023-10-31T12:02:18;2.6732965;;1.9776107;;;;;;;
44530;SPS30;30240;47.418;0.700;2023-10-31T12:04:43;2.6732965;;1.9776107;;;;;;;
44530;SPS30;30240;47.418;0.700;2023-10-31T12:07:08;4.0797896;;2.9589174;;;;;;;
44530;SPS30;30240;47.418;0.700;2023-10-31T12:09:45;2.9087267;;2.1130106;;;;;;;